メインページ
METAR-TAF:

METAR-TAF

空港 :

ハルツーム, スーダン

ハルツーム国際空港

緯度: 15-36N, 経度: 032-33E, 海抜: 382m

現時点の気象観測

当レポートは16分前の21:00(UTC)に作成
の風 5kt
気温 29°C
湿度 16%
気圧 1012 hPa
視程10km以上
1,500メートル以下は雲なし、積乱雲なし

METAR: HSSS 202100Z 36005KT CAVOK 29/01 Q1012 NOSIG

時間: 00:16 (21:16 UTC)

予報

当レポートは4時間16分前の17:00(UTC)に作成
予報は20日の 18時(UTC)から 21日の 24時(UTC)まで有効
の風 8kt、最大20ktの突風を伴う
20日の 18時(UTC)から 20日の 21時(UTC)まで一時的に
変向風 3kt
視程: 6000m
晴天
21日の 04時(UTC)から 21日の 07時(UTC)まで一時的に
視程: 6000m
晴天

TAF: HSSS 201700Z 2018/2124 36008G20KT TEMPO 2018/2021 VRB03KT 6000 SKC TEMPO 2104/2107 6000 SKC

4,000以上の空港の気象観測と天気予報(METAR報とTAF報)

利用可能な観測所は地図上に黄色い丸と赤い丸で示す。

丸の上にカーソルを重ねると観測所名を参照できる。

次にクリックすると気象観測と天気予報を参照できる。

マップの切り替え:黒色「×」印の緑ボタンをクリックして拡大、「-」印の緑ボタンをクリックして縮小、緑色の三角印をクリックして隣りの地図に切り替え


METAR-TAF: